Time;durP1;ratioP1;P1;durP2;ratioP2;P2;SDS_P1;SDS_P2;PMS_P1;PMS_P2;Temp;Humidity;BMP_temperature;BMP_pressure;BME280_temperature;BME280_humidity;BME280_pressure;Samples;Min_cycle;Max_cycle;Signal;HPM_P1;HPM_P2
2023/05/09 00:02:07;;;;;;;78.13;48.43;;;;;;;;;;5016758;28;20180;-89
2023/05/09 00:04:34;;;;;;;80.13;49.73;;;;;;;;;;5016830;28;20184;-90
2023/05/09 00:07:00;;;;;;;78.90;48.03;;;;;;;;;;5016780;28;20179;-92
2023/05/09 00:09:26;;;;;;;78.63;48.33;;;;;;;;;;5016914;28;20215;-89
2023/05/09 00:11:52;;;;;;;73.77;47.63;;;;;;;;;;5017276;28;20185;-89
2023/05/09 00:14:18;;;;;;;76.30;48.67;;;;;;;;;;5016586;28;20274;-90
2023/05/09 00:16:45;;;;;;;72.27;46.77;;;;;;;;;;5016792;28;20184;-90
2023/05/09 00:19:11;;;;;;;76.00;47.97;;;;;;;;;;5016415;28;20208;-90
2023/05/09 00:21:38;;;;;;;80.50;47.60;;;;;;;;;;5016824;28;20218;-91
2023/05/09 00:24:06;;;;;;;73.60;47.60;;;;;;;;;;5016572;28;20282;-90
2023/05/09 00:26:32;;;;;;;82.10;49.27;;;;;;;;;;5016624;28;20203;-88
2023/05/09 00:28:58;;;;;;;81.50;50.30;;;;;;;;;;5028986;28;20179;-89
2023/05/09 00:31:25;;;;;;;80.40;48.60;;;;;;;;;;5019818;28;20180;-90
2023/05/09 00:33:51;;;;;;;72.57;46.47;;;;;;;;;;5020121;28;20180;-90
2023/05/09 00:36:17;;;;;;;79.90;47.63;;;;;;;;;;5005327;28;20199;-90
2023/05/09 00:38:43;;;;;;;81.57;48.27;;;;;;;;;;5016561;28;20212;-91
2023/05/09 00:41:09;;;;;;;77.30;47.80;;;;;;;;;;5019193;28;20183;-89
2023/05/09 00:43:38;;;;;;;78.80;46.30;;;;;;;;;;5015875;28;20224;-90
2023/05/09 00:46:04;;;;;;;87.43;50.03;;;;;;;;;;5012734;28;20185;-92
2023/05/09 00:48:30;;;;;;;77.90;47.37;;;;;;;;;;5023949;28;20272;-90
2023/05/09 00:50:56;;;;;;;79.30;48.27;;;;;;;;;;5038249;28;20242;-90
2023/05/09 00:53:22;;;;;;;78.63;47.83;;;;;;;;;;5011671;28;20184;-92
2023/05/09 00:55:48;;;;;;;74.53;48.67;;;;;;;;;;5032053;28;20279;-89
2023/05/09 00:58:14;;;;;;;76.83;47.43;;;;;;;;;;5015808;28;20192;-90
2023/05/09 01:00:41;;;;;;;75.07;48.33;;;;;;;;;;5015043;28;20173;-91
2023/05/09 01:03:10;;;;;;;77.00;46.50;;;;;;;;;;5019900;28;20188;-89
2023/05/09 01:05:52;;;;;;;77.10;48.93;;;;;;;;;;5035674;28;20176;-87
2023/05/09 01:08:41;;;;;;;70.57;47.13;;;;;;;;;;5035747;28;20181;-90
2023/05/09 01:11:12;;;;;;;74.00;45.80;;;;;;;;;;5027517;28;20196;-89
2023/05/09 01:13:38;;;;;;;72.57;46.10;;;;;;;;;;5035907;28;20172;-89
2023/05/09 01:16:31;;;;;;;75.87;47.73;;;;;;;;;;5036166;28;20298;-90
2023/05/09 01:19:16;;;;;;;75.27;47.80;;;;;;;;;;5033088;28;20224;-89
2023/05/09 01:21:44;;;;;;;78.63;48.03;;;;;;;;;;5036050;28;20184;-90
2023/05/09 01:24:25;;;;;;;80.70;48.27;;;;;;;;;;5035868;28;20196;-90
2023/05/09 01:27:06;;;;;;;82.20;48.50;;;;;;;;;;5035997;28;20200;-89
2023/05/09 01:29:42;;;;;;;80.37;47.93;;;;;;;;;;5035800;28;20188;-90
2023/05/09 01:32:19;;;;;;;80.77;48.03;;;;;;;;;;5036183;28;20180;-90
2023/05/09 01:34:47;;;;;;;78.07;47.97;;;;;;;;;;5035929;28;20215;-89
2023/05/09 01:37:14;;;;;;;82.57;48.17;;;;;;;;;;5035838;28;20247;-90
2023/05/09 01:39:41;;;;;;;75.30;46.63;;;;;;;;;;5035881;28;20208;-89
2023/05/09 01:42:09;;;;;;;82.10;49.20;;;;;;;;;;5035493;28;20232;-90
2023/05/09 01:44:37;;;;;;;80.27;47.60;;;;;;;;;;5035069;28;20176;-90
2023/05/09 01:47:05;;;;;;;77.77;45.47;;;;;;;;;;5035666;28;20188;-91
2023/05/09 01:49:32;;;;;;;79.57;47.87;;;;;;;;;;5035709;28;20185;-89
2023/05/09 01:51:59;;;;;;;82.17;48.17;;;;;;;;;;5034753;28;20191;-90
2023/05/09 01:54:26;;;;;;;82.27;47.37;;;;;;;;;;5031163;28;20277;-90
2023/05/09 01:56:54;;;;;;;84.23;49.67;;;;;;;;;;5018050;28;20212;-89
2023/05/09 01:59:20;;;;;;;81.40;47.77;;;;;;;;;;5035092;28;20211;-91
2023/05/09 02:01:47;;;;;;;87.97;50.50;;;;;;;;;;5034314;28;20188;-89
2023/05/09 02:04:18;;;;;;;82.03;48.47;;;;;;;;;;5034761;28;20181;-91
2023/05/09 02:06:44;;;;;;;79.83;48.07;;;;;;;;;;5034805;28;20204;-90
2023/05/09 02:09:11;;;;;;;83.20;48.07;;;;;;;;;;5034694;28;20181;-90
2023/05/09 02:11:40;;;;;;;86.57;47.80;;;;;;;;;;5034368;28;20185;-90
2023/05/09 02:14:06;;;;;;;86.10;48.63;;;;;;;;;;5034347;28;20209;-89
2023/05/09 02:16:33;;;;;;;84.20;49.07;;;;;;;;;;5017767;28;20225;-90
2023/05/09 02:18:59;;;;;;;86.93;49.23;;;;;;;;;;5018129;28;20243;-90
2023/05/09 02:21:25;;;;;;;82.77;48.53;;;;;;;;;;5034463;28;20192;-90
2023/05/09 02:23:51;;;;;;;86.73;47.47;;;;;;;;;;5033964;28;20227;-90
2023/05/09 02:26:17;;;;;;;81.13;48.30;;;;;;;;;;5018577;28;20238;-89
2023/05/09 02:28:46;;;;;;;85.00;48.73;;;;;;;;;;5034984;28;20253;-89
2023/05/09 02:31:13;;;;;;;89.03;49.10;;;;;;;;;;5018702;28;20280;-90
2023/05/09 02:33:40;;;;;;;90.40;50.37;;;;;;;;;;5034499;28;20184;-91
2023/05/09 02:36:07;;;;;;;86.57;49.23;;;;;;;;;;5018199;28;20184;-89
2023/05/09 02:38:33;;;;;;;83.37;48.10;;;;;;;;;;5034337;28;20204;-90
2023/05/09 02:40:59;;;;;;;89.67;49.47;;;;;;;;;;5014973;28;20235;-90
2023/05/09 02:43:25;;;;;;;92.10;50.40;;;;;;;;;;5014655;28;20229;-90
2023/05/09 02:45:54;;;;;;;94.73;51.23;;;;;;;;;;5031314;28;20177;-89
2023/05/09 02:48:20;;;;;;;91.70;50.93;;;;;;;;;;5015058;28;20185;-90
2023/05/09 02:50:46;;;;;;;95.33;51.63;;;;;;;;;;5030906;28;20177;-90
2023/05/09 02:53:12;;;;;;;94.80;50.67;;;;;;;;;;5014977;28;20181;-89
2023/05/09 02:55:38;;;;;;;97.07;52.60;;;;;;;;;;5014597;28;20181;-92
2023/05/09 02:58:04;;;;;;;88.27;50.87;;;;;;;;;;5014721;28;20223;-91
2023/05/09 03:00:30;;;;;;;99.97;52.73;;;;;;;;;;5014671;28;20196;-90
2023/05/09 03:02:57;;;;;;;97.23;51.70;;;;;;;;;;5030652;28;20189;-89
2023/05/09 03:05:23;;;;;;;96.57;52.30;;;;;;;;;;5014653;28;20185;-91
2023/05/09 03:07:50;;;;;;;102.77;54.57;;;;;;;;;;5014399;28;20197;-89
2023/05/09 03:10:16;;;;;;;104.43;53.53;;;;;;;;;;5014729;28;20280;-89
2023/05/09 03:12:42;;;;;;;100.10;53.80;;;;;;;;;;5030823;28;20212;-91
2023/05/09 03:15:09;;;;;;;98.97;52.70;;;;;;;;;;5030877;28;20185;-90
2023/05/09 03:17:35;;;;;;;103.30;53.57;;;;;;;;;;5034718;28;20252;-93
2023/05/09 03:20:04;;;;;;;96.73;52.13;;;;;;;;;;5017551;28;20220;-91
2023/05/09 03:22:30;;;;;;;102.20;52.07;;;;;;;;;;5033369;28;20197;-91
2023/05/09 03:24:56;;;;;;;100.77;53.40;;;;;;;;;;5015387;28;20181;-90
2023/05/09 03:27:22;;;;;;;102.03;53.93;;;;;;;;;;5006023;28;20181;-92
2023/05/09 03:29:48;;;;;;;103.93;53.17;;;;;;;;;;4997895;28;20205;-91
2023/05/09 03:32:14;;;;;;;105.23;53.47;;;;;;;;;;5009460;28;20192;-91
2023/05/09 03:34:43;;;;;;;106.97;54.47;;;;;;;;;;5007962;28;20191;-90
2023/05/09 03:37:09;;;;;;;100.07;54.47;;;;;;;;;;5030419;28;20212;-90
2023/05/09 03:39:35;;;;;;;99.00;53.77;;;;;;;;;;5032371;28;20212;-90
2023/05/09 03:42:01;;;;;;;107.43;55.03;;;;;;;;;;5033170;28;20180;-89
2023/05/09 03:44:27;;;;;;;104.27;56.50;;;;;;;;;;5020069;28;20188;-91
2023/05/09 03:46:53;;;;;;;109.60;55.93;;;;;;;;;;5036574;28;20172;-90
2023/05/09 03:49:20;;;;;;;102.13;54.57;;;;;;;;;;5020590;28;20251;-91
2023/05/09 03:51:46;;;;;;;106.27;56.17;;;;;;;;;;5017028;28;20327;-89
2023/05/09 03:54:14;;;;;;;100.87;54.23;;;;;;;;;;5017218;28;20185;-90
2023/05/09 03:56:40;;;;;;;93.13;53.20;;;;;;;;;;5017323;28;20207;-89
2023/05/09 03:59:06;;;;;;;97.80;53.87;;;;;;;;;;5018875;28;20219;-89
2023/05/09 04:01:32;;;;;;;96.00;53.37;;;;;;;;;;5016864;28;20187;-90
2023/05/09 04:03:58;;;;;;;96.03;52.67;;;;;;;;;;5016916;28;20188;-91
2023/05/09 04:06:25;;;;;;;90.90;51.87;;;;;;;;;;5016688;28;20172;-89
2023/05/09 04:08:51;;;;;;;93.90;51.33;;;;;;;;;;5016891;28;20180;-91
2023/05/09 04:11:17;;;;;;;91.33;50.23;;;;;;;;;;5016904;28;20280;-89
2023/05/09 04:13:45;;;;;;;93.07;51.47;;;;;;;;;;5014293;28;20200;-91
2023/05/09 04:16:11;;;;;;;91.93;51.67;;;;;;;;;;5053053;28;20186;-90
2023/05/09 04:18:40;;;;;;;91.00;51.83;;;;;;;;;;5020234;28;20207;-90
2023/05/09 04:21:07;;;;;;;92.63;51.53;;;;;;;;;;5036317;28;20207;-90
2023/05/09 04:23:33;;;;;;;84.83;50.33;;;;;;;;;;5016670;28;20201;-89
2023/05/09 04:25:59;;;;;;;88.40;51.17;;;;;;;;;;5018781;28;20237;-90
2023/05/09 04:28:25;;;;;;;90.80;51.27;;;;;;;;;;5019865;28;20278;-90
2023/05/09 04:30:51;;;;;;;85.17;50.47;;;;;;;;;;5036132;28;20180;-90
2023/05/09 04:33:17;;;;;;;79.63;49.50;;;;;;;;;;5019888;28;20179;-90
2023/05/09 04:35:44;;;;;;;90.77;50.50;;;;;;;;;;5038037;28;20186;-90
2023/05/09 04:38:10;;;;;;;82.77;48.33;;;;;;;;;;5023406;28;20226;-90
2023/05/09 04:40:36;;;;;;;83.57;49.30;;;;;;;;;;5024000;28;20202;-90
2023/05/09 04:43:03;;;;;;;78.73;49.27;;;;;;;;;;5040183;28;20249;-91
2023/05/09 04:45:29;;;;;;;86.07;50.50;;;;;;;;;;5023899;28;20211;-91
2023/05/09 04:47:55;;;;;;;87.47;49.83;;;;;;;;;;5039916;28;20183;-91
2023/05/09 04:50:21;;;;;;;77.63;47.47;;;;;;;;;;5040866;28;20168;-90
2023/05/09 04:52:47;;;;;;;80.10;49.53;;;;;;;;;;5025889;28;20198;-90
2023/05/09 04:55:13;;;;;;;70.43;45.30;;;;;;;;;;5040823;28;20187;-91
2023/05/09 04:57:39;;;;;;;70.30;45.57;;;;;;;;;;5007337;28;20246;-91
2023/05/09 05:00:06;;;;;;;68.43;43.83;;;;;;;;;;5022275;28;20350;-91
2023/05/09 05:02:32;;;;;;;64.60;43.47;;;;;;;;;;5022491;28;20204;-89
2023/05/09 05:04:58;;;;;;;68.53;43.07;;;;;;;;;;5041542;28;20203;-91
2023/05/09 05:07:25;;;;;;;62.07;41.97;;;;;;;;;;5024198;28;20180;-90
2023/05/09 05:09:51;;;;;;;69.50;43.97;;;;;;;;;;5025643;28;20206;-90
2023/05/09 05:12:17;;;;;;;63.50;42.50;;;;;;;;;;5026286;28;20188;-91
2023/05/09 05:14:43;;;;;;;64.80;43.93;;;;;;;;;;5024776;28;20208;-90
2023/05/09 05:17:09;;;;;;;68.83;45.00;;;;;;;;;;5041114;28;20176;-90
2023/05/09 05:19:35;;;;;;;63.40;42.27;;;;;;;;;;5041282;28;20204;-91
2023/05/09 05:22:03;;;;;;;63.53;42.33;;;;;;;;;;5024278;28;20172;-89
2023/05/09 05:24:29;;;;;;;64.10;42.83;;;;;;;;;;5040368;28;20183;-90
2023/05/09 05:26:55;;;;;;;68.80;42.93;;;;;;;;;;5023386;28;20274;-88
2023/05/09 05:29:22;;;;;;;64.20;42.00;;;;;;;;;;5011891;28;20212;-88
2023/05/09 05:31:48;;;;;;;61.50;42.50;;;;;;;;;;5022865;28;20192;-88
2023/05/09 05:34:15;;;;;;;65.10;42.13;;;;;;;;;;5022746;28;20184;-89
2023/05/09 05:36:41;;;;;;;65.03;41.77;;;;;;;;;;5024328;28;20219;-89
2023/05/09 05:39:07;;;;;;;66.27;42.00;;;;;;;;;;5023553;28;20212;-89
2023/05/09 05:41:33;;;;;;;61.10;41.53;;;;;;;;;;5039745;28;20180;-88
2023/05/09 05:43:59;;;;;;;60.60;41.03;;;;;;;;;;5039305;28;20215;-88
2023/05/09 05:46:25;;;;;;;58.10;39.57;;;;;;;;;;5039151;28;20179;-89
2023/05/09 05:48:51;;;;;;;61.43;41.20;;;;;;;;;;5024104;28;20180;-89
2023/05/09 05:51:17;;;;;;;55.77;39.63;;;;;;;;;;5023602;28;20184;-89
2023/05/09 05:53:44;;;;;;;58.87;39.43;;;;;;;;;;5023660;28;20183;-89
2023/05/09 05:56:10;;;;;;;56.40;39.33;;;;;;;;;;5024102;28;20195;-89
2023/05/09 05:58:36;;;;;;;51.77;38.33;;;;;;;;;;5023553;28;20222;-89
2023/05/09 06:01:02;;;;;;;55.13;37.87;;;;;;;;;;5024312;28;20325;-89
2023/05/09 06:03:31;;;;;;;52.13;36.47;;;;;;;;;;5025656;28;20186;-89
2023/05/09 06:05:57;;;;;;;53.80;37.40;;;;;;;;;;5022846;28;20319;-88
2023/05/09 06:08:23;;;;;;;50.90;37.93;;;;;;;;;;5040439;28;20176;-88
2023/05/09 06:10:51;;;;;;;50.17;36.17;;;;;;;;;;5034047;28;20184;-88
2023/05/09 06:13:18;;;;;;;50.23;36.63;;;;;;;;;;5023116;28;20180;-89
2023/05/09 06:15:44;;;;;;;46.07;34.50;;;;;;;;;;5038320;28;20208;-88
2023/05/09 06:18:13;;;;;;;45.67;35.57;;;;;;;;;;5035711;28;20190;-88
2023/05/09 06:20:39;;;;;;;46.67;33.77;;;;;;;;;;5011618;28;20242;-88
2023/05/09 06:23:05;;;;;;;42.50;33.57;;;;;;;;;;5011839;28;20208;-89
2023/05/09 06:25:31;;;;;;;43.83;32.73;;;;;;;;;;5008743;28;20183;-88
2023/05/09 06:27:59;;;;;;;44.13;33.07;;;;;;;;;;5018805;28;20210;-87
2023/05/09 06:30:26;;;;;;;38.97;32.67;;;;;;;;;;5034735;28;20180;-89
2023/05/09 06:32:52;;;;;;;39.30;31.43;;;;;;;;;;5035057;28;20192;-88
2023/05/09 06:35:18;;;;;;;38.87;31.00;;;;;;;;;;5034919;28;20180;-87
2023/05/09 06:37:44;;;;;;;37.97;30.10;;;;;;;;;;5012370;28;20217;-87
2023/05/09 06:40:10;;;;;;;41.30;31.13;;;;;;;;;;5024186;28;20218;-87
2023/05/09 06:42:36;;;;;;;38.47;31.20;;;;;;;;;;5017283;28;20258;-88
2023/05/09 06:45:02;;;;;;;38.70;30.10;;;;;;;;;;5016968;28;20207;-87
2023/05/09 06:47:28;;;;;;;37.77;29.27;;;;;;;;;;5013070;28;20191;-87
2023/05/09 06:49:54;;;;;;;37.73;30.43;;;;;;;;;;5031138;28;20274;-87
2023/05/09 06:52:20;;;;;;;31.33;27.30;;;;;;;;;;5032820;28;20180;-87
2023/05/09 06:54:46;;;;;;;31.90;27.87;;;;;;;;;;5034189;28;20203;-88
2023/05/09 06:57:12;;;;;;;32.20;27.60;;;;;;;;;;5033574;28;20180;-88
2023/05/09 06:59:38;;;;;;;33.77;27.50;;;;;;;;;;5034590;28;20216;-88
2023/05/09 07:02:04;;;;;;;29.80;26.13;;;;;;;;;;5035860;28;20176;-86
2023/05/09 07:04:30;;;;;;;32.27;25.77;;;;;;;;;;5040154;28;20190;-87
2023/05/09 07:06:58;;;;;;;31.00;26.50;;;;;;;;;;5021016;28;20234;-88
2023/05/09 07:09:26;;;;;;;29.90;25.27;;;;;;;;;;5019239;28;20192;-87
2023/05/09 07:11:52;;;;;;;28.03;25.03;;;;;;;;;;5037195;28;20184;-88
2023/05/09 07:14:19;;;;;;;29.03;23.77;;;;;;;;;;5035806;28;20211;-87
2023/05/09 07:16:48;;;;;;;28.17;23.50;;;;;;;;;;5020827;28;20184;-88
2023/05/09 07:19:14;;;;;;;25.70;22.90;;;;;;;;;;5035631;28;20208;-88
2023/05/09 07:21:40;;;;;;;27.87;23.97;;;;;;;;;;5020602;28;20180;-88
2023/05/09 07:24:06;;;;;;;26.20;23.40;;;;;;;;;;5018406;28;20203;-88
2023/05/09 07:26:32;;;;;;;26.23;23.43;;;;;;;;;;5020419;28;20210;-87
2023/05/09 07:28:58;;;;;;;27.70;24.70;;;;;;;;;;5020468;28;20187;-87
2023/05/09 07:31:24;;;;;;;28.07;24.13;;;;;;;;;;5020608;28;20203;-87
2023/05/09 07:33:50;;;;;;;29.13;24.67;;;;;;;;;;5036199;28;20183;-86
2023/05/09 07:36:19;;;;;;;29.07;23.50;;;;;;;;;;5015171;28;20221;-87
2023/05/09 07:38:46;;;;;;;26.37;23.50;;;;;;;;;;5052826;28;20260;-87
2023/05/09 07:41:13;;;;;;;29.00;25.17;;;;;;;;;;5036675;28;20167;-87
2023/05/09 07:43:39;;;;;;;28.90;25.37;;;;;;;;;;5036594;28;20212;-86
2023/05/09 07:46:05;;;;;;;27.63;24.63;;;;;;;;;;5020168;28;20184;-86
2023/05/09 07:48:31;;;;;;;28.30;24.00;;;;;;;;;;5015704;28;20197;-86
2023/05/09 07:50:57;;;;;;;26.97;24.03;;;;;;;;;;5035239;28;20186;-86
2023/05/09 07:53:25;;;;;;;30.00;24.33;;;;;;;;;;5035103;28;20239;-86
2023/05/09 07:55:51;;;;;;;26.90;23.03;;;;;;;;;;5033886;28;20232;-85
2023/05/09 07:58:17;;;;;;;30.77;24.50;;;;;;;;;;5016205;28;20196;-86
2023/05/09 08:00:43;;;;;;;27.77;24.87;;;;;;;;;;5033641;28;20180;-86
2023/05/09 08:03:10;;;;;;;28.63;24.80;;;;;;;;;;5017411;28;20188;-85
2023/05/09 08:05:36;;;;;;;27.57;23.67;;;;;;;;;;5039707;28;20242;-85
2023/05/09 08:08:02;;;;;;;26.47;23.03;;;;;;;;;;5030967;28;20218;-86
2023/05/09 08:10:29;;;;;;;28.70;23.00;;;;;;;;;;5016098;28;20215;-86
2023/05/09 08:12:56;;;;;;;28.53;24.47;;;;;;;;;;5011236;28;20189;-86
2023/05/09 08:15:22;;;;;;;25.27;22.20;;;;;;;;;;5016663;28;20288;-86
2023/05/09 08:17:48;;;;;;;25.40;22.60;;;;;;;;;;5051936;28;20247;-86
2023/05/09 08:20:14;;;;;;;24.03;21.53;;;;;;;;;;5015684;28;20247;-86
2023/05/09 08:22:40;;;;;;;24.47;21.60;;;;;;;;;;5016736;28;20236;-85
2023/05/09 08:25:07;;;;;;;22.27;19.27;;;;;;;;;;5016233;28;20191;-86
2023/05/09 08:27:33;;;;;;;22.70;20.20;;;;;;;;;;5016376;28;20168;-86
2023/05/09 08:29:59;;;;;;;21.43;19.13;;;;;;;;;;5002114;28;20200;-86
2023/05/09 08:32:27;;;;;;;23.00;19.90;;;;;;;;;;5049216;28;20227;-85
2023/05/09 08:34:53;;;;;;;24.00;20.67;;;;;;;;;;5048038;28;20234;-86
2023/05/09 08:37:19;;;;;;;23.17;20.27;;;;;;;;;;5034304;28;20184;-87
2023/05/09 08:39:45;;;;;;;23.77;20.20;;;;;;;;;;5018778;28;20207;-85
2023/05/09 08:42:14;;;;;;;24.07;20.07;;;;;;;;;;5008139;28;20185;-86
2023/05/09 08:44:40;;;;;;;21.57;19.27;;;;;;;;;;5048895;28;20220;-85
2023/05/09 08:47:06;;;;;;;20.90;18.30;;;;;;;;;;5016192;28;20188;-86
2023/05/09 08:49:35;;;;;;;21.80;19.50;;;;;;;;;;5055761;28;20453;-82
2023/05/09 08:52:01;;;;;;;22.60;20.23;;;;;;;;;;5021242;28;20420;-81
2023/05/09 08:54:28;;;;;;;23.48;20.85;;;;;;;;;;5035161;28;20411;-82
2023/05/09 08:56:57;;;;;;;22.73;20.42;;;;;;;;;;5034778;28;20416;-81
2023/05/09 08:59:23;;;;;;;23.40;20.90;;;;;;;;;;5015167;28;20432;-82
2023/05/09 09:01:50;;;;;;;23.30;21.00;;;;;;;;;;5016272;28;20420;-81
2023/05/09 09:04:19;;;;;;;23.23;20.95;;;;;;;;;;5018476;28;20540;-81
2023/05/09 09:06:45;;;;;;;23.77;21.48;;;;;;;;;;5003946;28;20434;-81
2023/05/09 09:09:13;;;;;;;23.70;21.20;;;;;;;;;;5003044;28;20485;-81
2023/05/09 09:11:40;;;;;;;21.47;19.27;;;;;;;;;;5032584;28;20214;-81
2023/05/09 09:14:12;;;;;;;23.17;20.95;;;;;;;;;;5021497;28;20454;-81
2023/05/09 09:16:38;;;;;;;22.73;20.33;;;;;;;;;;5017942;28;20343;-81
2023/05/09 09:19:05;;;;;;;22.90;20.73;;;;;;;;;;5016727;28;20519;-81
2023/05/09 09:21:31;;;;;;;24.17;21.63;;;;;;;;;;5020265;28;20415;-82
2023/05/09 09:23:58;;;;;;;23.92;21.42;;;;;;;;;;5020154;28;20507;-81
2023/05/09 09:26:28;;;;;;;23.30;21.10;;;;;;;;;;5004212;28;20429;-81
2023/05/09 09:28:55;;;;;;;23.45;21.17;;;;;;;;;;5043400;28;20481;-81
2023/05/09 09:31:22;;;;;;;24.35;21.95;;;;;;;;;;5020733;28;20433;-81
2023/05/09 09:33:49;;;;;;;24.00;21.53;;;;;;;;;;5035221;28;20412;-81
2023/05/09 09:36:15;;;;;;;23.90;21.50;;;;;;;;;;5038710;28;20404;-81
2023/05/09 09:38:47;;;;;;;23.27;20.97;;;;;;;;;;5039058;28;20204;-81
2023/05/09 09:41:13;;;;;;;22.83;20.43;;;;;;;;;;5038920;28;20172;-81
2023/05/09 09:43:44;;;;;;;22.93;19.67;;;;;;;;;;5021923;28;20303;-81
2023/05/09 09:46:12;;;;;;;21.07;19.07;;;;;;;;;;5038367;28;20184;-81
2023/05/09 09:48:39;;;;;;;23.00;20.90;;;;;;;;;;5021880;28;20424;-81
2023/05/09 09:51:10;;;;;;;22.40;20.10;;;;;;;;;;5018457;28;20497;-80
2023/05/09 09:53:45;;;;;;;22.58;20.35;;;;;;;;;;5017907;28;20402;-81
2023/05/09 09:56:11;;;;;;;21.40;19.15;;;;;;;;;;5017848;28;20437;-82
2023/05/09 09:58:38;;;;;;;17.75;16.02;;;;;;;;;;5017373;28;20420;-81
2023/05/09 10:01:07;;;;;;;16.20;14.73;;;;;;;;;;5036729;28;20439;-82
2023/05/09 10:03:36;;;;;;;16.07;14.30;;;;;;;;;;5036590;28;20450;-81
2023/05/09 10:06:02;;;;;;;15.27;13.77;;;;;;;;;;5037414;28;20419;-81
2023/05/09 10:08:28;;;;;;;15.05;13.60;;;;;;;;;;5020982;28;20487;-82
2023/05/09 10:10:57;;;;;;;15.20;13.82;;;;;;;;;;5006188;28;20441;-81
2023/05/09 10:13:23;;;;;;;15.25;13.77;;;;;;;;;;5037544;28;20422;-80
2023/05/09 10:15:49;;;;;;;14.55;13.18;;;;;;;;;;5017592;28;20430;-81
2023/05/09 10:18:18;;;;;;;15.93;14.38;;;;;;;;;;5021116;28;20419;-81
2023/05/09 10:20:44;;;;;;;15.25;13.65;;;;;;;;;;5036366;28;20528;-81
2023/05/09 10:23:10;;;;;;;15.35;13.85;;;;;;;;;;5019427;28;20430;-80
2023/05/09 10:25:39;;;;;;;15.40;13.90;;;;;;;;;;5036354;28;20420;-80
2023/05/09 10:28:11;;;;;;;14.60;13.20;;;;;;;;;;5034153;28;20431;-81
2023/05/09 10:30:43;;;;;;;14.05;12.75;;;;;;;;;;5048932;28;20414;-81
2023/05/09 10:33:46;;;;;;;13.67;12.37;;;;;;;;;;5054140;28;20401;-93
2023/05/09 10:36:22;;;;;;;13.25;12.13;;;;;;;;;;5057817;28;20419;-92
2023/05/09 10:38:49;;;;;;;13.30;12.10;;;;;;;;;;5037236;28;20431;-91
2023/05/09 10:41:20;;;;;;;12.30;11.10;;;;;;;;;;5020120;28;20446;-89
2023/05/09 10:43:47;;;;;;;12.25;11.07;;;;;;;;;;5037051;28;20412;-92
2023/05/09 10:46:17;;;;;;;11.60;10.60;;;;;;;;;;5033264;28;20486;-88
2023/05/09 10:48:43;;;;;;;11.05;9.65;;;;;;;;;;5017419;28;20456;-87
2023/05/09 10:51:09;;;;;;;10.00;9.20;;;;;;;;;;5033547;28;20443;-91
2023/05/09 10:53:46;;;;;;;9.70;8.73;;;;;;;;;;5036962;28;20423;-89
2023/05/09 10:56:22;;;;;;;10.02;9.02;;;;;;;;;;5036572;28;20454;-90
2023/05/09 10:58:51;;;;;;;10.30;9.20;;;;;;;;;;5035739;28;20427;-89
2023/05/09 11:01:28;;;;;;;10.40;9.40;;;;;;;;;;5034335;28;20419;-89
2023/05/09 11:03:56;;;;;;;9.60;8.70;;;;;;;;;;5036527;28;20487;-89
2023/05/09 11:06:44;;;;;;;10.82;9.20;;;;;;;;;;5035832;28;20522;-89
2023/05/09 11:09:31;;;;;;;10.80;9.70;;;;;;;;;;5036556;28;20431;-90
2023/05/09 11:12:07;;;;;;;11.13;10.03;;;;;;;;;;5037258;28;20262;-89
2023/05/09 11:14:36;;;;;;;11.63;10.53;;;;;;;;;;5035560;28;20180;-87
2023/05/09 11:17:04;;;;;;;11.53;10.53;;;;;;;;;;5036109;28;20278;-90
2023/05/09 11:19:35;;;;;;;11.70;10.60;;;;;;;;;;5037461;28;20211;-89
2023/05/09 11:22:02;;;;;;;12.63;11.33;;;;;;;;;;5034911;28;20208;-88
2023/05/09 11:24:31;;;;;;;13.37;12.07;;;;;;;;;;5024443;28;20176;-88
2023/05/09 11:26:57;;;;;;;12.70;11.40;;;;;;;;;;5023043;28;20184;-89
2023/05/09 11:29:29;;;;;;;13.77;12.47;;;;;;;;;;5028234;28;20184;-89
2023/05/09 11:32:07;;;;;;;13.57;12.17;;;;;;;;;;4997240;28;20199;-89
2023/05/09 11:34:33;;;;;;;14.40;12.93;;;;;;;;;;5023823;28;20179;-89
2023/05/09 11:37:12;;;;;;;14.13;12.73;;;;;;;;;;5024580;28;20196;-88
2023/05/09 11:39:57;;;;;;;11.90;10.80;;;;;;;;;;5026179;28;20211;-88
2023/05/09 11:42:26;;;;;;;12.73;11.43;;;;;;;;;;5025219;28;20326;-90
2023/05/09 11:44:52;;;;;;;11.80;10.70;;;;;;;;;;5030737;28;20251;-90
2023/05/09 11:47:20;;;;;;;10.10;9.10;;;;;;;;;;5024248;28;20211;-88
2023/05/09 11:49:50;;;;;;;10.90;9.10;;;;;;;;;;5027797;28;20180;-89
2023/05/09 11:52:18;;;;;;;7.03;6.43;;;;;;;;;;5026149;28;20291;-88
2023/05/09 11:54:44;;;;;;;6.67;5.83;;;;;;;;;;5036191;28;20183;-88
2023/05/09 11:57:17;;;;;;;7.50;6.17;;;;;;;;;;5036395;28;20188;-88
2023/05/09 11:59:53;;;;;;;8.53;6.50;;;;;;;;;;5036507;28;20208;-89
2023/05/09 12:02:21;;;;;;;6.60;6.00;;;;;;;;;;5034917;28;20187;-90
2023/05/09 12:04:48;;;;;;;7.70;5.13;;;;;;;;;;5036424;28;20183;-89
2023/05/09 12:07:15;;;;;;;4.67;4.20;;;;;;;;;;5036147;28;20179;-90
2023/05/09 12:09:45;;;;;;;4.47;4.07;;;;;;;;;;5036519;28;20183;-90
2023/05/09 12:12:20;;;;;;;4.73;4.20;;;;;;;;;;5053948;28;20180;-89
2023/05/09 12:14:48;;;;;;;5.87;4.00;;;;;;;;;;5036120;28;20183;-88
2023/05/09 12:17:14;;;;;;;4.37;3.80;;;;;;;;;;5036297;28;20183;-89
2023/05/09 12:19:44;;;;;;;4.63;4.10;;;;;;;;;;5035848;28;20207;-90
2023/05/09 12:22:10;;;;;;;4.83;4.13;;;;;;;;;;5036043;28;20227;-88
2023/05/09 12:24:36;;;;;;;4.67;4.20;;;;;;;;;;5036493;28;20233;-89
2023/05/09 12:27:06;;;;;;;5.23;4.00;;;;;;;;;;5036143;28;20187;-89
2023/05/09 12:29:32;;;;;;;5.87;4.20;;;;;;;;;;5036599;28;20203;-88
2023/05/09 12:32:02;;;;;;;4.23;3.83;;;;;;;;;;5036472;28;20190;-90
2023/05/09 12:34:28;;;;;;;6.07;3.50;;;;;;;;;;5036449;28;20206;-89
2023/05/09 12:36:55;;;;;;;5.73;3.70;;;;;;;;;;5036414;28;20256;-90
2023/05/09 12:39:26;;;;;;;4.13;3.77;;;;;;;;;;5036543;28;20211;-89
2023/05/09 12:41:52;;;;;;;4.00;3.60;;;;;;;;;;5036310;28;20240;-89
2023/05/09 12:44:28;;;;;;;4.80;4.20;;;;;;;;;;5036382;28;20216;-90
2023/05/09 12:47:01;;;;;;;4.40;4.03;;;;;;;;;;5036254;28;20186;-90
2023/05/09 12:49:27;;;;;;;5.07;4.50;;;;;;;;;;5036612;28;20179;-90
2023/05/09 12:51:57;;;;;;;6.03;4.50;;;;;;;;;;5036056;28;20187;-90
2023/05/09 12:54:24;;;;;;;5.87;4.73;;;;;;;;;;5036138;28;20270;-89
2023/05/09 12:56:59;;;;;;;5.63;5.13;;;;;;;;;;5038081;28;20187;-90
2023/05/09 12:59:27;;;;;;;5.80;5.17;;;;;;;;;;5040331;28;20294;-90
2023/05/09 13:01:56;;;;;;;6.03;5.33;;;;;;;;;;5039951;28;20251;-89
2023/05/09 13:04:23;;;;;;;6.00;5.40;;;;;;;;;;5039991;28;20203;-90
2023/05/09 13:06:57;;;;;;;6.93;5.70;;;;;;;;;;5040271;28;20175;-90
2023/05/09 13:09:24;;;;;;;6.37;5.67;;;;;;;;;;5039880;28;20183;-90
2023/05/09 13:11:55;;;;;;;6.10;5.50;;;;;;;;;;5023893;28;20188;-89
2023/05/09 13:14:22;;;;;;;6.30;5.70;;;;;;;;;;5040006;28;20180;-90
2023/05/09 13:16:51;;;;;;;5.80;5.30;;;;;;;;;;5039951;28;20180;-89
2023/05/09 13:19:17;;;;;;;6.07;5.57;;;;;;;;;;5040261;28;20207;-90
2023/05/09 13:21:51;;;;;;;6.60;6.00;;;;;;;;;;5022976;28;20184;-89
2023/05/09 13:24:41;;;;;;;6.10;5.60;;;;;;;;;;5039571;28;20280;-89
2023/05/09 13:27:09;;;;;;;6.43;5.93;;;;;;;;;;5032262;28;20184;-89
2023/05/09 13:29:35;;;;;;;6.30;5.67;;;;;;;;;;5039467;28;20184;-89
2023/05/09 13:32:02;;;;;;;6.37;5.80;;;;;;;;;;5023153;28;20211;-90
2023/05/09 13:34:28;;;;;;;6.17;5.67;;;;;;;;;;5039789;28;20184;-90
2023/05/09 13:36:57;;;;;;;6.70;6.10;;;;;;;;;;5019607;28;20200;-90
2023/05/09 13:39:23;;;;;;;6.10;5.60;;;;;;;;;;5036212;28;20211;-90
2023/05/09 13:41:51;;;;;;;6.00;5.50;;;;;;;;;;5032072;28;20204;-90
2023/05/09 13:44:22;;;;;;;6.73;5.43;;;;;;;;;;5025331;28;20231;-89
2023/05/09 13:46:51;;;;;;;6.37;5.77;;;;;;;;;;5029484;28;20212;-90
2023/05/09 13:49:18;;;;;;;6.13;5.63;;;;;;;;;;5019844;28;20195;-89
2023/05/09 13:51:44;;;;;;;6.07;5.43;;;;;;;;;;5030093;28;20195;-91
2023/05/09 13:54:16;;;;;;;6.00;5.50;;;;;;;;;;5029533;28;20280;-90
2023/05/09 13:56:42;;;;;;;6.40;5.57;;;;;;;;;;5047666;28;20179;-90
2023/05/09 13:59:09;;;;;;;6.00;5.50;;;;;;;;;;5039126;28;20216;-89
2023/05/09 14:01:35;;;;;;;6.27;5.63;;;;;;;;;;5038806;28;20172;-89
2023/05/09 14:04:04;;;;;;;7.00;5.90;;;;;;;;;;5038895;28;20191;-89
2023/05/09 14:06:32;;;;;;;7.27;6.53;;;;;;;;;;5039072;28;20199;-89
2023/05/09 14:09:02;;;;;;;7.53;6.83;;;;;;;;;;5038771;28;20184;-88
2023/05/09 14:11:28;;;;;;;7.17;6.47;;;;;;;;;;5038698;28;20175;-89
2023/05/09 14:13:55;;;;;;;5.90;5.40;;;;;;;;;;5038654;28;20210;-88
2023/05/09 14:16:23;;;;;;;6.30;5.70;;;;;;;;;;5038915;28;20187;-88
2023/05/09 14:18:49;;;;;;;7.53;6.40;;;;;;;;;;5038553;28;20211;-90
2023/05/09 14:21:21;;;;;;;7.07;5.93;;;;;;;;;;5018512;28;20189;-89
2023/05/09 14:23:48;;;;;;;6.73;6.13;;;;;;;;;;5035115;28;20203;-89
2023/05/09 14:26:14;;;;;;;7.30;6.70;;;;;;;;;;5037475;28;20219;-88